sensor_id;sensor_type;location;lat;lon;timestamp;temperature;humidity
52765;DHT22;38650;44.536;18.664;2023-05-10T00:01:24;14.10;99.90
52765;DHT22;38650;44.536;18.664;2023-05-10T00:03:50;14.20;99.90
52765;DHT22;38650;44.536;18.664;2023-05-10T00:06:15;14.20;99.90
52765;DHT22;38650;44.536;18.664;2023-05-10T00:08:41;14.30;99.90
52765;DHT22;38650;44.536;18.664;2023-05-10T00:11:07;14.30;99.90
52765;DHT22;38650;44.536;18.664;2023-05-10T00:13:32;14.30;99.90
52765;DHT22;38650;44.536;18.664;2023-05-10T00:15:58;14.10;99.90
52765;DHT22;38650;44.536;18.664;2023-05-10T00:18:23;14.00;99.90
52765;DHT22;38650;44.536;18.664;2023-05-10T00:20:49;13.90;99.90
52765;DHT22;38650;44.536;18.664;2023-05-10T00:23:15;14.00;99.90
52765;DHT22;38650;44.536;18.664;2023-05-10T00:25:40;13.90;99.90
52765;DHT22;38650;44.536;18.664;2023-05-10T00:28:06;13.80;99.90
52765;DHT22;38650;44.536;18.664;2023-05-10T00:30:31;13.70;99.90
52765;DHT22;38650;44.536;18.664;2023-05-10T00:32:57;13.50;99.90
52765;DHT22;38650;44.536;18.664;2023-05-10T00:35:23;13.50;99.90
52765;DHT22;38650;44.536;18.664;2023-05-10T00:37:48;13.60;99.90
52765;DHT22;38650;44.536;18.664;2023-05-10T00:40:14;13.70;99.90
52765;DHT22;38650;44.536;18.664;2023-05-10T00:42:39;13.70;99.90
52765;DHT22;38650;44.536;18.664;2023-05-10T00:45:05;13.50;99.90
52765;DHT22;38650;44.536;18.664;2023-05-10T00:47:31;13.40;99.90
52765;DHT22;38650;44.536;18.664;2023-05-10T00:49:57;13.20;99.90
52765;DHT22;38650;44.536;18.664;2023-05-10T00:52:22;13.20;99.90
52765;DHT22;38650;44.536;18.664;2023-05-10T00:54:50;13.10;99.90
52765;DHT22;38650;44.536;18.664;2023-05-10T00:57:15;13.10;99.90
52765;DHT22;38650;44.536;18.664;2023-05-10T00:59:42;13.20;99.90
52765;DHT22;38650;44.536;18.664;2023-05-10T01:02:07;13.30;99.90
52765;DHT22;38650;44.536;18.664;2023-05-10T01:04:33;13.30;99.90
52765;DHT22;38650;44.536;18.664;2023-05-10T01:07:00;13.40;99.90
52765;DHT22;38650;44.536;18.664;2023-05-10T01:09:25;13.40;99.90
52765;DHT22;38650;44.536;18.664;2023-05-10T01:11:51;13.40;99.90
52765;DHT22;38650;44.536;18.664;2023-05-10T01:14:18;13.30;99.90
52765;DHT22;38650;44.536;18.664;2023-05-10T01:16:44;13.20;99.90
52765;DHT22;38650;44.536;18.664;2023-05-10T01:19:18;13.10;99.90
52765;DHT22;38650;44.536;18.664;2023-05-10T01:21:57;13.10;99.90
52765;DHT22;38650;44.536;18.664;2023-05-10T01:27:17;12.90;99.90
52765;DHT22;38650;44.536;18.664;2023-05-10T01:34:42;12.70;99.90
52765;DHT22;38650;44.536;18.664;2023-05-10T01:37:13;12.70;99.90
52765;DHT22;38650;44.536;18.664;2023-05-10T01:42:21;12.60;99.90
52765;DHT22;38650;44.536;18.664;2023-05-10T01:47:25;12.70;99.90
52765;DHT22;38650;44.536;18.664;2023-05-10T01:49:55;12.70;99.90
52765;DHT22;38650;44.536;18.664;2023-05-10T01:52:30;12.70;99.90
52765;DHT22;38650;44.536;18.664;2023-05-10T01:55:01;12.80;99.90
52765;DHT22;38650;44.536;18.664;2023-05-10T01:57:31;12.80;99.90
52765;DHT22;38650;44.536;18.664;2023-05-10T01:59:58;12.80;99.90
52765;DHT22;38650;44.536;18.664;2023-05-10T02:02:24;12.80;99.90
52765;DHT22;38650;44.536;18.664;2023-05-10T02:04:51;12.80;99.90
52765;DHT22;38650;44.536;18.664;2023-05-10T02:07:18;12.90;99.90
52765;DHT22;38650;44.536;18.664;2023-05-10T02:09:44;12.80;99.90
52765;DHT22;38650;44.536;18.664;2023-05-10T02:12:13;12.80;99.90
52765;DHT22;38650;44.536;18.664;2023-05-10T02:14:40;12.70;99.90
52765;DHT22;38650;44.536;18.664;2023-05-10T02:17:06;12.60;99.90
52765;DHT22;38650;44.536;18.664;2023-05-10T02:19:33;12.50;99.90
52765;DHT22;38650;44.536;18.664;2023-05-10T02:21:59;12.50;99.90
52765;DHT22;38650;44.536;18.664;2023-05-10T02:24:25;12.60;99.90
52765;DHT22;38650;44.536;18.664;2023-05-10T02:26:51;12.60;99.90
52765;DHT22;38650;44.536;18.664;2023-05-10T02:29:18;12.60;99.90
52765;DHT22;38650;44.536;18.664;2023-05-10T02:31:44;12.60;99.90
52765;DHT22;38650;44.536;18.664;2023-05-10T02:34:10;12.60;99.90
52765;DHT22;38650;44.536;18.664;2023-05-10T02:36:37;12.60;99.90
52765;DHT22;38650;44.536;18.664;2023-05-10T02:39:03;12.60;99.90
52765;DHT22;38650;44.536;18.664;2023-05-10T02:41:31;12.50;99.90
52765;DHT22;38650;44.536;18.664;2023-05-10T02:43:59;12.40;99.90
52765;DHT22;38650;44.536;18.664;2023-05-10T02:46:25;12.30;99.90
52765;DHT22;38650;44.536;18.664;2023-05-10T02:48:51;12.20;99.90
52765;DHT22;38650;44.536;18.664;2023-05-10T02:51:16;12.20;99.90
52765;DHT22;38650;44.536;18.664;2023-05-10T02:53:44;12.20;99.90
52765;DHT22;38650;44.536;18.664;2023-05-10T02:56:15;12.10;99.90
52765;DHT22;38650;44.536;18.664;2023-05-10T02:58:44;12.10;99.90
52765;DHT22;38650;44.536;18.664;2023-05-10T03:01:09;12.00;99.90
52765;DHT22;38650;44.536;18.664;2023-05-10T03:03:35;12.00;99.90
52765;DHT22;38650;44.536;18.664;2023-05-10T03:06:01;11.90;99.90
52765;DHT22;38650;44.536;18.664;2023-05-10T03:08:26;11.80;99.90
52765;DHT22;38650;44.536;18.664;2023-05-10T03:13:40;11.90;99.90
52765;DHT22;38650;44.536;18.664;2023-05-10T03:16:14;11.90;99.90
52765;DHT22;38650;44.536;18.664;2023-05-10T03:18:42;11.90;99.90
52765;DHT22;38650;44.536;18.664;2023-05-10T03:21:10;11.90;99.90
52765;DHT22;38650;44.536;18.664;2023-05-10T03:26:05;12.00;99.90
52765;DHT22;38650;44.536;18.664;2023-05-10T03:28:33;12.00;99.90
52765;DHT22;38650;44.536;18.664;2023-05-10T03:30:59;12.00;99.90
52765;DHT22;38650;44.536;18.664;2023-05-10T03:33:25;11.90;99.90
52765;DHT22;38650;44.536;18.664;2023-05-10T03:35:50;11.80;99.90
52765;DHT22;38650;44.536;18.664;2023-05-10T03:38:16;11.80;99.90
52765;DHT22;38650;44.536;18.664;2023-05-10T03:40:41;11.80;99.90
52765;DHT22;38650;44.536;18.664;2023-05-10T03:43:07;11.80;99.90
52765;DHT22;38650;44.536;18.664;2023-05-10T03:45:33;11.80;99.90
52765;DHT22;38650;44.536;18.664;2023-05-10T03:47:58;11.80;99.90
52765;DHT22;38650;44.536;18.664;2023-05-10T03:50:24;11.80;99.90
52765;DHT22;38650;44.536;18.664;2023-05-10T03:52:49;11.90;99.90
52765;DHT22;38650;44.536;18.664;2023-05-10T03:55:15;11.90;99.90
52765;DHT22;38650;44.536;18.664;2023-05-10T03:57:41;11.90;99.90
52765;DHT22;38650;44.536;18.664;2023-05-10T04:00:07;11.90;99.90
52765;DHT22;38650;44.536;18.664;2023-05-10T04:02:33;12.00;99.90
52765;DHT22;38650;44.536;18.664;2023-05-10T04:04:58;12.00;99.90
52765;DHT22;38650;44.536;18.664;2023-05-10T04:07:24;12.10;99.90
52765;DHT22;38650;44.536;18.664;2023-05-10T04:09:50;12.10;99.90
52765;DHT22;38650;44.536;18.664;2023-05-10T04:12:15;12.10;99.90
52765;DHT22;38650;44.536;18.664;2023-05-10T04:14:41;12.10;99.90
52765;DHT22;38650;44.536;18.664;2023-05-10T04:17:06;12.20;99.90
52765;DHT22;38650;44.536;18.664;2023-05-10T04:19:32;12.20;99.90
52765;DHT22;38650;44.536;18.664;2023-05-10T04:21:58;12.10;99.90
52765;DHT22;38650;44.536;18.664;2023-05-10T04:24:24;12.10;99.90
52765;DHT22;38650;44.536;18.664;2023-05-10T04:26:50;12.00;99.90
52765;DHT22;38650;44.536;18.664;2023-05-10T04:29:15;12.00;99.90
52765;DHT22;38650;44.536;18.664;2023-05-10T04:31:41;12.10;99.90
52765;DHT22;38650;44.536;18.664;2023-05-10T04:34:06;12.10;99.90
52765;DHT22;38650;44.536;18.664;2023-05-10T04:36:32;12.20;99.90
52765;DHT22;38650;44.536;18.664;2023-05-10T04:39:00;12.10;99.90
52765;DHT22;38650;44.536;18.664;2023-05-10T04:41:26;12.00;99.90
52765;DHT22;38650;44.536;18.664;2023-05-10T04:43:51;12.00;99.90
52765;DHT22;38650;44.536;18.664;2023-05-10T04:46:17;12.00;99.90
52765;DHT22;38650;44.536;18.664;2023-05-10T04:48:42;12.00;99.90
52765;DHT22;38650;44.536;18.664;2023-05-10T04:51:08;12.10;99.90
52765;DHT22;38650;44.536;18.664;2023-05-10T04:53:33;12.10;99.90
52765;DHT22;38650;44.536;18.664;2023-05-10T04:55:59;12.10;99.90
52765;DHT22;38650;44.536;18.664;2023-05-10T04:58:24;12.10;99.90
52765;DHT22;38650;44.536;18.664;2023-05-10T05:00:50;12.20;99.90
52765;DHT22;38650;44.536;18.664;2023-05-10T05:03:16;12.20;99.90
52765;DHT22;38650;44.536;18.664;2023-05-10T05:05:41;12.20;99.90
52765;DHT22;38650;44.536;18.664;2023-05-10T05:08:07;12.20;99.90
52765;DHT22;38650;44.536;18.664;2023-05-10T05:10:32;12.20;99.90
52765;DHT22;38650;44.536;18.664;2023-05-10T05:12:58;12.20;99.90
52765;DHT22;38650;44.536;18.664;2023-05-10T05:15:23;12.20;99.90
52765;DHT22;38650;44.536;18.664;2023-05-10T05:17:49;12.30;99.90
52765;DHT22;38650;44.536;18.664;2023-05-10T05:20:14;12.40;99.90
52765;DHT22;38650;44.536;18.664;2023-05-10T05:22:40;12.40;99.90
52765;DHT22;38650;44.536;18.664;2023-05-10T05:25:06;12.40;99.90
52765;DHT22;38650;44.536;18.664;2023-05-10T05:27:32;12.40;99.90
52765;DHT22;38650;44.536;18.664;2023-05-10T05:29:58;12.40;99.90
52765;DHT22;38650;44.536;18.664;2023-05-10T05:32:23;12.50;99.90
52765;DHT22;38650;44.536;18.664;2023-05-10T05:34:49;12.70;99.90
52765;DHT22;38650;44.536;18.664;2023-05-10T05:37:16;12.70;99.90
52765;DHT22;38650;44.536;18.664;2023-05-10T05:39:42;12.90;99.90
52765;DHT22;38650;44.536;18.664;2023-05-10T05:42:08;13.00;99.90
52765;DHT22;38650;44.536;18.664;2023-05-10T05:44:34;13.20;99.90
52765;DHT22;38650;44.536;18.664;2023-05-10T05:46:59;13.30;99.90
52765;DHT22;38650;44.536;18.664;2023-05-10T05:49:25;13.50;99.90
52765;DHT22;38650;44.536;18.664;2023-05-10T05:51:50;13.70;99.90
52765;DHT22;38650;44.536;18.664;2023-05-10T05:54:16;13.80;99.90
52765;DHT22;38650;44.536;18.664;2023-05-10T05:56:42;14.00;99.90
52765;DHT22;38650;44.536;18.664;2023-05-10T05:59:07;14.20;99.90
52765;DHT22;38650;44.536;18.664;2023-05-10T06:01:33;14.30;99.90
52765;DHT22;38650;44.536;18.664;2023-05-10T06:03:58;14.50;99.90
52765;DHT22;38650;44.536;18.664;2023-05-10T06:06:24;14.70;99.90
52765;DHT22;38650;44.536;18.664;2023-05-10T06:08:51;14.90;99.90
52765;DHT22;38650;44.536;18.664;2023-05-10T06:11:16;15.00;99.90
52765;DHT22;38650;44.536;18.664;2023-05-10T06:13:42;15.20;99.90
52765;DHT22;38650;44.536;18.664;2023-05-10T06:16:08;15.40;99.90
52765;DHT22;38650;44.536;18.664;2023-05-10T06:18:33;15.40;99.90
52765;DHT22;38650;44.536;18.664;2023-05-10T06:20:59;15.50;99.90
52765;DHT22;38650;44.536;18.664;2023-05-10T06:23:25;15.70;99.90
52765;DHT22;38650;44.536;18.664;2023-05-10T06:25:51;15.90;99.90
52765;DHT22;38650;44.536;18.664;2023-05-10T06:28:16;16.10;99.90
52765;DHT22;38650;44.536;18.664;2023-05-10T06:30:42;16.30;99.90
52765;DHT22;38650;44.536;18.664;2023-05-10T06:33:07;16.30;99.90
52765;DHT22;38650;44.536;18.664;2023-05-10T06:35:33;16.40;99.90
52765;DHT22;38650;44.536;18.664;2023-05-10T06:37:59;16.40;99.90
52765;DHT22;38650;44.536;18.664;2023-05-10T06:40:29;16.40;99.90
52765;DHT22;38650;44.536;18.664;2023-05-10T06:42:55;16.50;99.90
52765;DHT22;38650;44.536;18.664;2023-05-10T06:45:20;16.60;99.90
52765;DHT22;38650;44.536;18.664;2023-05-10T06:47:46;16.80;99.90
52765;DHT22;38650;44.536;18.664;2023-05-10T06:50:12;17.00;99.90
52765;DHT22;38650;44.536;18.664;2023-05-10T06:52:37;17.20;99.90
52765;DHT22;38650;44.536;18.664;2023-05-10T06:55:03;17.30;99.90
52765;DHT22;38650;44.536;18.664;2023-05-10T06:57:29;17.60;99.90
52765;DHT22;38650;44.536;18.664;2023-05-10T06:59:55;18.00;98.20
52765;DHT22;38650;44.536;18.664;2023-05-10T07:02:21;19.50;96.50
52765;DHT22;38650;44.536;18.664;2023-05-10T07:04:47;22.60;73.40
52765;DHT22;38650;44.536;18.664;2023-05-10T07:07:13;24.90;59.80
52765;DHT22;38650;44.536;18.664;2023-05-10T07:09:39;26.80;53.20
52765;DHT22;38650;44.536;18.664;2023-05-10T07:12:05;28.20;50.20
52765;DHT22;38650;44.536;18.664;2023-05-10T07:14:30;29.10;47.80
52765;DHT22;38650;44.536;18.664;2023-05-10T07:16:56;29.90;45.50
52765;DHT22;38650;44.536;18.664;2023-05-10T07:19:22;30.90;46.00
52765;DHT22;38650;44.536;18.664;2023-05-10T07:21:47;31.10;42.90
52765;DHT22;38650;44.536;18.664;2023-05-10T07:24:13;30.80;43.40
52765;DHT22;38650;44.536;18.664;2023-05-10T07:26:38;29.50;43.20
52765;DHT22;38650;44.536;18.664;2023-05-10T07:29:04;29.10;43.20
52765;DHT22;38650;44.536;18.664;2023-05-10T07:31:29;29.20;43.60
52765;DHT22;38650;44.536;18.664;2023-05-10T07:33:55;28.40;43.30
52765;DHT22;38650;44.536;18.664;2023-05-10T07:36:20;28.40;44.40
52765;DHT22;38650;44.536;18.664;2023-05-10T07:38:46;28.50;43.80
52765;DHT22;38650;44.536;18.664;2023-05-10T07:41:12;30.30;43.30
52765;DHT22;38650;44.536;18.664;2023-05-10T07:43:37;31.00;41.20
52765;DHT22;38650;44.536;18.664;2023-05-10T07:46:03;31.90;41.60
52765;DHT22;38650;44.536;18.664;2023-05-10T07:48:29;33.00;39.20
52765;DHT22;38650;44.536;18.664;2023-05-10T07:50:57;33.90;38.80
52765;DHT22;38650;44.536;18.664;2023-05-10T07:53:25;34.60;37.90
52765;DHT22;38650;44.536;18.664;2023-05-10T07:55:52;34.00;36.30
52765;DHT22;38650;44.536;18.664;2023-05-10T07:58:19;32.20;38.40
52765;DHT22;38650;44.536;18.664;2023-05-10T08:00:45;30.40;39.90
52765;DHT22;38650;44.536;18.664;2023-05-10T08:03:10;29.30;41.70
52765;DHT22;38650;44.536;18.664;2023-05-10T08:05:36;30.00;42.70
52765;DHT22;38650;44.536;18.664;2023-05-10T08:08:02;31.20;39.60
52765;DHT22;38650;44.536;18.664;2023-05-10T08:10:27;32.30;39.70
52765;DHT22;38650;44.536;18.664;2023-05-10T08:12:53;32.80;38.70
52765;DHT22;38650;44.536;18.664;2023-05-10T08:15:18;33.70;38.20
52765;DHT22;38650;44.536;18.664;2023-05-10T08:17:44;34.10;37.80
52765;DHT22;38650;44.536;18.664;2023-05-10T08:20:09;34.00;37.90
52765;DHT22;38650;44.536;18.664;2023-05-10T08:22:37;34.50;36.90
52765;DHT22;38650;44.536;18.664;2023-05-10T08:25:03;34.60;36.50
52765;DHT22;38650;44.536;18.664;2023-05-10T08:27:28;33.80;36.10
52765;DHT22;38650;44.536;18.664;2023-05-10T08:29:54;32.70;37.10
52765;DHT22;38650;44.536;18.664;2023-05-10T08:32:20;31.30;38.40
52765;DHT22;38650;44.536;18.664;2023-05-10T08:34:45;30.10;40.60
52765;DHT22;38650;44.536;18.664;2023-05-10T08:37:11;29.70;40.50
52765;DHT22;38650;44.536;18.664;2023-05-10T08:39:38;29.00;41.10
52765;DHT22;38650;44.536;18.664;2023-05-10T08:42:04;28.70;42.30
52765;DHT22;38650;44.536;18.664;2023-05-10T08:44:34;28.40;41.80
52765;DHT22;38650;44.536;18.664;2023-05-10T08:47:05;28.60;42.10
52765;DHT22;38650;44.536;18.664;2023-05-10T08:49:32;29.60;41.70
52765;DHT22;38650;44.536;18.664;2023-05-10T08:52:03;29.10;41.30
52765;DHT22;38650;44.536;18.664;2023-05-10T08:54:32;29.00;41.00
52765;DHT22;38650;44.536;18.664;2023-05-10T08:56:57;28.70;41.00
52765;DHT22;38650;44.536;18.664;2023-05-10T08:59:24;27.80;42.40
52765;DHT22;38650;44.536;18.664;2023-05-10T09:01:50;27.50;43.30
52765;DHT22;38650;44.536;18.664;2023-05-10T09:04:16;27.40;44.20
52765;DHT22;38650;44.536;18.664;2023-05-10T09:06:41;26.90;44.60
52765;DHT22;38650;44.536;18.664;2023-05-10T09:09:07;26.30;45.70
52765;DHT22;38650;44.536;18.664;2023-05-10T09:11:32;26.60;45.90
52765;DHT22;38650;44.536;18.664;2023-05-10T09:14:09;26.50;46.90
52765;DHT22;38650;44.536;18.664;2023-05-10T09:16:35;26.40;45.60
52765;DHT22;38650;44.536;18.664;2023-05-10T09:19:01;26.50;45.00
52765;DHT22;38650;44.536;18.664;2023-05-10T09:21:26;26.20;45.10
52765;DHT22;38650;44.536;18.664;2023-05-10T09:23:52;25.70;46.10
52765;DHT22;38650;44.536;18.664;2023-05-10T09:26:22;25.00;47.80
52765;DHT22;38650;44.536;18.664;2023-05-10T09:28:55;25.10;47.30
52765;DHT22;38650;44.536;18.664;2023-05-10T09:31:22;25.00;48.30
52765;DHT22;38650;44.536;18.664;2023-05-10T09:33:49;25.10;48.80
52765;DHT22;38650;44.536;18.664;2023-05-10T09:36:15;24.90;49.00
52765;DHT22;38650;44.536;18.664;2023-05-10T09:38:52;25.10;48.20
52765;DHT22;38650;44.536;18.664;2023-05-10T09:41:18;25.40;47.80
52765;DHT22;38650;44.536;18.664;2023-05-10T09:43:47;26.00;48.30
52765;DHT22;38650;44.536;18.664;2023-05-10T09:46:22;26.50;47.00
52765;DHT22;38650;44.536;18.664;2023-05-10T09:48:48;26.30;47.50
52765;DHT22;38650;44.536;18.664;2023-05-10T09:51:23;26.10;46.50
52765;DHT22;38650;44.536;18.664;2023-05-10T09:54:08;25.50;47.00
52765;DHT22;38650;44.536;18.664;2023-05-10T09:56:34;25.60;48.90
52765;DHT22;38650;44.536;18.664;2023-05-10T09:59:04;25.80;47.80
52765;DHT22;38650;44.536;18.664;2023-05-10T10:01:30;26.20;47.30
52765;DHT22;38650;44.536;18.664;2023-05-10T10:03:56;26.20;46.20
52765;DHT22;38650;44.536;18.664;2023-05-10T10:06:23;25.70;46.30
52765;DHT22;38650;44.536;18.664;2023-05-10T10:08:52;25.80;47.80
52765;DHT22;38650;44.536;18.664;2023-05-10T10:11:18;26.70;49.30
52765;DHT22;38650;44.536;18.664;2023-05-10T10:13:44;27.50;46.40
52765;DHT22;38650;44.536;18.664;2023-05-10T10:16:10;27.80;47.00
52765;DHT22;38650;44.536;18.664;2023-05-10T10:18:36;27.90;45.50
52765;DHT22;38650;44.536;18.664;2023-05-10T10:21:13;27.70;45.90
52765;DHT22;38650;44.536;18.664;2023-05-10T10:23:41;27.70;45.30
52765;DHT22;38650;44.536;18.664;2023-05-10T10:26:09;27.20;45.20
52765;DHT22;38650;44.536;18.664;2023-05-10T10:31:28;26.80;46.70
52765;DHT22;38650;44.536;18.664;2023-05-10T10:34:03;26.90;46.20
52765;DHT22;38650;44.536;18.664;2023-05-10T10:36:31;26.80;46.50
52765;DHT22;38650;44.536;18.664;2023-05-10T10:38:59;26.80;47.00
52765;DHT22;38650;44.536;18.664;2023-05-10T10:41:27;26.90;50.40
52765;DHT22;38650;44.536;18.664;2023-05-10T10:46:57;26.70;47.50
52765;DHT22;38650;44.536;18.664;2023-05-10T10:49:23;26.40;48.40
52765;DHT22;38650;44.536;18.664;2023-05-10T10:54:32;26.70;47.70
52765;DHT22;38650;44.536;18.664;2023-05-10T10:57:13;27.10;47.00
52765;DHT22;38650;44.536;18.664;2023-05-10T10:59:43;26.80;47.90
52765;DHT22;38650;44.536;18.664;2023-05-10T11:04:55;27.20;48.20
52765;DHT22;38650;44.536;18.664;2023-05-10T11:07:21;27.10;48.50
52765;DHT22;38650;44.536;18.664;2023-05-10T11:09:47;27.10;47.10
52765;DHT22;38650;44.536;18.664;2023-05-10T11:12:12;26.90;47.90
52765;DHT22;38650;44.536;18.664;2023-05-10T11:14:38;27.00;47.60
52765;DHT22;38650;44.536;18.664;2023-05-10T11:17:22;26.90;46.60
52765;DHT22;38650;44.536;18.664;2023-05-10T11:20:06;26.80;48.10
52765;DHT22;38650;44.536;18.664;2023-05-10T11:22:49;26.60;49.50
52765;DHT22;38650;44.536;18.664;2023-05-10T11:25:16;26.40;47.90
52765;DHT22;38650;44.536;18.664;2023-05-10T11:27:42;26.10;48.00
52765;DHT22;38650;44.536;18.664;2023-05-10T11:30:09;26.00;47.90
52765;DHT22;38650;44.536;18.664;2023-05-10T11:32:36;25.70;48.50
52765;DHT22;38650;44.536;18.664;2023-05-10T11:35:08;25.60;49.10
52765;DHT22;38650;44.536;18.664;2023-05-10T11:37:34;25.40;49.50
52765;DHT22;38650;44.536;18.664;2023-05-10T11:40:00;25.30;49.20
52765;DHT22;38650;44.536;18.664;2023-05-10T11:42:27;25.40;50.70
52765;DHT22;38650;44.536;18.664;2023-05-10T11:44:53;25.50;49.30
52765;DHT22;38650;44.536;18.664;2023-05-10T11:47:18;25.50;49.20
52765;DHT22;38650;44.536;18.664;2023-05-10T11:49:44;25.40;49.20
52765;DHT22;38650;44.536;18.664;2023-05-10T11:52:10;25.40;49.30
52765;DHT22;38650;44.536;18.664;2023-05-10T11:54:45;25.20;49.40
52765;DHT22;38650;44.536;18.664;2023-05-10T11:57:11;25.00;51.20
52765;DHT22;38650;44.536;18.664;2023-05-10T11:59:37;25.20;51.30
52765;DHT22;38650;44.536;18.664;2023-05-10T12:02:02;25.40;50.10
52765;DHT22;38650;44.536;18.664;2023-05-10T12:04:28;25.70;50.20
52765;DHT22;38650;44.536;18.664;2023-05-10T12:06:55;26.00;51.50
52765;DHT22;38650;44.536;18.664;2023-05-10T12:09:21;26.30;49.90
52765;DHT22;38650;44.536;18.664;2023-05-10T12:11:46;26.70;48.40
52765;DHT22;38650;44.536;18.664;2023-05-10T12:14:12;26.80;48.00
52765;DHT22;38650;44.536;18.664;2023-05-10T12:16:37;26.90;48.60
52765;DHT22;38650;44.536;18.664;2023-05-10T12:19:03;27.30;49.30
52765;DHT22;38650;44.536;18.664;2023-05-10T12:21:29;28.10;48.20
52765;DHT22;38650;44.536;18.664;2023-05-10T12:23:59;28.80;46.70
52765;DHT22;38650;44.536;18.664;2023-05-10T12:26:25;28.80;46.10
52765;DHT22;38650;44.536;18.664;2023-05-10T12:28:54;28.60;45.50
52765;DHT22;38650;44.536;18.664;2023-05-10T12:31:20;28.30;45.50
52765;DHT22;38650;44.536;18.664;2023-05-10T12:33:45;28.10;47.40
52765;DHT22;38650;44.536;18.664;2023-05-10T12:36:13;27.70;46.60
52765;DHT22;38650;44.536;18.664;2023-05-10T12:38:40;27.60;46.10
52765;DHT22;38650;44.536;18.664;2023-05-10T12:41:09;27.50;46.60
52765;DHT22;38650;44.536;18.664;2023-05-10T12:43:35;27.40;46.60
52765;DHT22;38650;44.536;18.664;2023-05-10T12:46:18;27.10;47.20
52765;DHT22;38650;44.536;18.664;2023-05-10T12:48:44;27.00;46.80
52765;DHT22;38650;44.536;18.664;2023-05-10T12:51:20;26.80;46.50
52765;DHT22;38650;44.536;18.664;2023-05-10T12:53:47;26.60;48.30
52765;DHT22;38650;44.536;18.664;2023-05-10T12:56:13;26.40;48.40
52765;DHT22;38650;44.536;18.664;2023-05-10T12:58:38;26.40;48.20
52765;DHT22;38650;44.536;18.664;2023-05-10T13:01:04;26.30;47.70
52765;DHT22;38650;44.536;18.664;2023-05-10T13:03:30;26.30;49.50
52765;DHT22;38650;44.536;18.664;2023-05-10T13:05:55;26.30;48.10
52765;DHT22;38650;44.536;18.664;2023-05-10T13:08:21;26.20;49.70
52765;DHT22;38650;44.536;18.664;2023-05-10T13:10:47;26.40;48.30
52765;DHT22;38650;44.536;18.664;2023-05-10T13:13:12;26.30;48.20
52765;DHT22;38650;44.536;18.664;2023-05-10T13:15:38;26.30;49.50
52765;DHT22;38650;44.536;18.664;2023-05-10T13:18:03;26.30;48.60
52765;DHT22;38650;44.536;18.664;2023-05-10T13:20:29;26.30;48.80
52765;DHT22;38650;44.536;18.664;2023-05-10T13:22:54;26.20;48.60
52765;DHT22;38650;44.536;18.664;2023-05-10T13:25:20;25.90;48.20
52765;DHT22;38650;44.536;18.664;2023-05-10T13:27:46;25.70;48.60
52765;DHT22;38650;44.536;18.664;2023-05-10T13:30:11;25.60;49.00
52765;DHT22;38650;44.536;18.664;2023-05-10T13:32:37;25.50;49.90
52765;DHT22;38650;44.536;18.664;2023-05-10T13:35:03;25.60;49.40
52765;DHT22;38650;44.536;18.664;2023-05-10T13:37:30;25.60;49.00
52765;DHT22;38650;44.536;18.664;2023-05-10T13:39:55;25.60;49.90
52765;DHT22;38650;44.536;18.664;2023-05-10T13:42:24;25.70;50.20
52765;DHT22;38650;44.536;18.664;2023-05-10T13:44:49;25.70;49.60
52765;DHT22;38650;44.536;18.664;2023-05-10T13:47:15;25.70;49.70
52765;DHT22;38650;44.536;18.664;2023-05-10T13:49:41;25.80;50.50
52765;DHT22;38650;44.536;18.664;2023-05-10T13:52:07;25.70;50.00
52765;DHT22;38650;44.536;18.664;2023-05-10T13:54:33;26.00;50.70
52765;DHT22;38650;44.536;18.664;2023-05-10T13:56:59;26.10;50.00
52765;DHT22;38650;44.536;18.664;2023-05-10T13:59:25;26.10;49.70
52765;DHT22;38650;44.536;18.664;2023-05-10T14:01:50;26.10;49.80
52765;DHT22;38650;44.536;18.664;2023-05-10T14:04:16;26.00;50.30
52765;DHT22;38650;44.536;18.664;2023-05-10T14:06:42;25.80;49.40
52765;DHT22;38650;44.536;18.664;2023-05-10T14:09:07;25.80;49.70
52765;DHT22;38650;44.536;18.664;2023-05-10T14:11:33;25.60;49.40
52765;DHT22;38650;44.536;18.664;2023-05-10T14:13:58;25.50;49.90
52765;DHT22;38650;44.536;18.664;2023-05-10T14:16:24;25.40;50.50
52765;DHT22;38650;44.536;18.664;2023-05-10T14:18:49;25.40;50.70
52765;DHT22;38650;44.536;18.664;2023-05-10T14:21:15;25.40;50.90
52765;DHT22;38650;44.536;18.664;2023-05-10T14:23:41;25.20;51.20
52765;DHT22;38650;44.536;18.664;2023-05-10T14:26:06;25.00;51.10
52765;DHT22;38650;44.536;18.664;2023-05-10T14:28:32;25.00;51.30
52765;DHT22;38650;44.536;18.664;2023-05-10T14:30:57;24.90;51.10
52765;DHT22;38650;44.536;18.664;2023-05-10T14:33:24;25.00;51.40
52765;DHT22;38650;44.536;18.664;2023-05-10T14:35:50;25.00;50.90
52765;DHT22;38650;44.536;18.664;2023-05-10T14:38:16;25.00;51.20
52765;DHT22;38650;44.536;18.664;2023-05-10T14:40:41;24.90;51.60
52765;DHT22;38650;44.536;18.664;2023-05-10T14:43:08;24.90;51.20
52765;DHT22;38650;44.536;18.664;2023-05-10T14:45:33;24.90;51.70
52765;DHT22;38650;44.536;18.664;2023-05-10T14:47:59;24.90;51.40
52765;DHT22;38650;44.536;18.664;2023-05-10T14:50:25;24.80;51.50
52765;DHT22;38650;44.536;18.664;2023-05-10T14:52:51;24.90;51.80
52765;DHT22;38650;44.536;18.664;2023-05-10T14:55:16;24.90;51.80
52765;DHT22;38650;44.536;18.664;2023-05-10T14:57:42;24.80;51.70
52765;DHT22;38650;44.536;18.664;2023-05-10T15:00:09;24.80;52.40
52765;DHT22;38650;44.536;18.664;2023-05-10T15:02:35;24.70;51.80
52765;DHT22;38650;44.536;18.664;2023-05-10T15:05:00;24.60;52.40
52765;DHT22;38650;44.536;18.664;2023-05-10T15:07:26;24.70;52.00
52765;DHT22;38650;44.536;18.664;2023-05-10T15:09:51;24.70;52.60
52765;DHT22;38650;44.536;18.664;2023-05-10T15:12:17;24.80;51.80
52765;DHT22;38650;44.536;18.664;2023-05-10T15:14:43;24.90;51.90
52765;DHT22;38650;44.536;18.664;2023-05-10T15:17:09;24.90;52.80
52765;DHT22;38650;44.536;18.664;2023-05-10T15:19:35;24.90;52.10
52765;DHT22;38650;44.536;18.664;2023-05-10T15:22:01;24.80;51.80
52765;DHT22;38650;44.536;18.664;2023-05-10T15:24:27;24.70;51.60
52765;DHT22;38650;44.536;18.664;2023-05-10T15:26:53;24.50;52.80
52765;DHT22;38650;44.536;18.664;2023-05-10T15:29:19;24.40;52.50
52765;DHT22;38650;44.536;18.664;2023-05-10T15:31:45;24.20;52.70
52765;DHT22;38650;44.536;18.664;2023-05-10T15:34:11;24.20;53.20
52765;DHT22;38650;44.536;18.664;2023-05-10T15:36:36;24.20;53.40
52765;DHT22;38650;44.536;18.664;2023-05-10T15:39:02;24.10;53.10
52765;DHT22;38650;44.536;18.664;2023-05-10T15:41:28;24.00;53.10